sensor_id;sensor_type;location;lat;lon;timestamp;P1;durP1;ratioP1;P2;durP2;ratioP2
17153;SDS011;8692;52.164;7.558;2023-08-06T00:02:15;8.83;;;5.30;;
17153;SDS011;8692;52.164;7.558;2023-08-06T00:04:43;5.00;;;4.20;;
17153;SDS011;8692;52.164;7.558;2023-08-06T00:07:12;4.73;;;4.13;;
17153;SDS011;8692;52.164;7.558;2023-08-06T00:09:40;5.20;;;4.70;;
17153;SDS011;8692;52.164;7.558;2023-08-06T00:12:08;5.03;;;4.23;;
17153;SDS011;8692;52.164;7.558;2023-08-06T00:14:36;7.33;;;5.10;;
17153;SDS011;8692;52.164;7.558;2023-08-06T00:17:04;5.93;;;5.33;;
17153;SDS011;8692;52.164;7.558;2023-08-06T00:19:32;5.50;;;4.30;;
17153;SDS011;8692;52.164;7.558;2023-08-06T00:22:00;7.07;;;5.40;;
17153;SDS011;8692;52.164;7.558;2023-08-06T00:24:30;5.50;;;4.97;;
17153;SDS011;8692;52.164;7.558;2023-08-06T00:26:58;5.33;;;4.83;;
17153;SDS011;8692;52.164;7.558;2023-08-06T00:29:26;5.20;;;4.77;;
17153;SDS011;8692;52.164;7.558;2023-08-06T00:31:54;6.87;;;5.73;;
17153;SDS011;8692;52.164;7.558;2023-08-06T00:34:24;5.27;;;4.63;;
17153;SDS011;8692;52.164;7.558;2023-08-06T00:36:52;5.00;;;4.50;;
17153;SDS011;8692;52.164;7.558;2023-08-06T00:39:20;5.10;;;4.60;;
17153;SDS011;8692;52.164;7.558;2023-08-06T00:41:50;6.33;;;5.63;;
17153;SDS011;8692;52.164;7.558;2023-08-06T00:44:19;6.43;;;5.07;;
17153;SDS011;8692;52.164;7.558;2023-08-06T00:46:47;5.07;;;4.67;;
17153;SDS011;8692;52.164;7.558;2023-08-06T00:49:15;6.20;;;5.50;;
17153;SDS011;8692;52.164;7.558;2023-08-06T00:51:43;6.00;;;4.60;;
17153;SDS011;8692;52.164;7.558;2023-08-06T00:54:11;6.03;;;5.07;;
17153;SDS011;8692;52.164;7.558;2023-08-06T00:56:40;5.20;;;4.70;;
17153;SDS011;8692;52.164;7.558;2023-08-06T00:59:10;4.60;;;4.20;;
17153;SDS011;8692;52.164;7.558;2023-08-06T01:01:39;4.90;;;4.40;;
17153;SDS011;8692;52.164;7.558;2023-08-06T01:04:07;4.60;;;4.20;;
17153;SDS011;8692;52.164;7.558;2023-08-06T01:06:38;7.63;;;5.27;;
17153;SDS011;8692;52.164;7.558;2023-08-06T01:09:13;8.13;;;5.50;;
17153;SDS011;8692;52.164;7.558;2023-08-06T01:11:54;5.40;;;4.90;;
17153;SDS011;8692;52.164;7.558;2023-08-06T01:14:30;4.47;;;4.17;;
17153;SDS011;8692;52.164;7.558;2023-08-06T01:17:05;4.50;;;4.20;;
17153;SDS011;8692;52.164;7.558;2023-08-06T01:19:34;5.50;;;5.00;;
17153;SDS011;8692;52.164;7.558;2023-08-06T01:22:04;6.73;;;5.77;;
17153;SDS011;8692;52.164;7.558;2023-08-06T01:24:32;5.10;;;4.60;;
17153;SDS011;8692;52.164;7.558;2023-08-06T01:27:02;4.90;;;4.50;;
17153;SDS011;8692;52.164;7.558;2023-08-06T01:29:34;5.47;;;5.00;;
17153;SDS011;8692;52.164;7.558;2023-08-06T01:32:06;4.93;;;4.50;;
17153;SDS011;8692;52.164;7.558;2023-08-06T01:34:38;8.97;;;4.80;;
17153;SDS011;8692;52.164;7.558;2023-08-06T01:37:10;6.63;;;6.03;;
17153;SDS011;8692;52.164;7.558;2023-08-06T01:39:39;5.97;;;5.23;;
17153;SDS011;8692;52.164;7.558;2023-08-06T01:42:09;6.53;;;5.63;;
17153;SDS011;8692;52.164;7.558;2023-08-06T01:44:39;5.67;;;5.17;;
17153;SDS011;8692;52.164;7.558;2023-08-06T01:47:07;7.23;;;6.23;;
17153;SDS011;8692;52.164;7.558;2023-08-06T01:49:35;5.30;;;4.80;;
17153;SDS011;8692;52.164;7.558;2023-08-06T01:52:03;7.60;;;5.80;;
17153;SDS011;8692;52.164;7.558;2023-08-06T01:54:33;6.77;;;5.67;;
17153;SDS011;8692;52.164;7.558;2023-08-06T01:57:01;6.73;;;6.03;;
17153;SDS011;8692;52.164;7.558;2023-08-06T01:59:29;5.87;;;5.43;;
17153;SDS011;8692;52.164;7.558;2023-08-06T02:01:57;6.43;;;5.90;;
17153;SDS011;8692;52.164;7.558;2023-08-06T02:04:25;6.23;;;5.63;;
17153;SDS011;8692;52.164;7.558;2023-08-06T02:06:53;5.73;;;5.23;;
17153;SDS011;8692;52.164;7.558;2023-08-06T02:09:21;7.30;;;5.90;;
17153;SDS011;8692;52.164;7.558;2023-08-06T02:11:51;6.97;;;6.37;;
17153;SDS011;8692;52.164;7.558;2023-08-06T02:14:19;6.63;;;6.03;;
17153;SDS011;8692;52.164;7.558;2023-08-06T02:16:47;8.60;;;6.23;;
17153;SDS011;8692;52.164;7.558;2023-08-06T02:19:15;5.27;;;4.80;;
17153;SDS011;8692;52.164;7.558;2023-08-06T02:21:43;6.03;;;5.40;;
17153;SDS011;8692;52.164;7.558;2023-08-06T02:24:11;5.77;;;5.27;;
17153;SDS011;8692;52.164;7.558;2023-08-06T02:26:39;6.93;;;5.83;;
17153;SDS011;8692;52.164;7.558;2023-08-06T02:29:09;7.47;;;6.07;;
17153;SDS011;8692;52.164;7.558;2023-08-06T02:31:37;6.97;;;5.40;;
17153;SDS011;8692;52.164;7.558;2023-08-06T02:34:05;5.13;;;4.80;;
17153;SDS011;8692;52.164;7.558;2023-08-06T02:36:32;4.60;;;4.20;;
17153;SDS011;8692;52.164;7.558;2023-08-06T02:39:00;5.10;;;4.60;;
17153;SDS011;8692;52.164;7.558;2023-08-06T02:41:29;7.30;;;4.50;;
17153;SDS011;8692;52.164;7.558;2023-08-06T02:43:57;5.23;;;4.83;;
17153;SDS011;8692;52.164;7.558;2023-08-06T02:46:26;4.30;;;4.00;;
17153;SDS011;8692;52.164;7.558;2023-08-06T02:48:54;8.57;;;6.40;;
17153;SDS011;8692;52.164;7.558;2023-08-06T02:51:22;4.97;;;4.57;;
17153;SDS011;8692;52.164;7.558;2023-08-06T02:53:50;4.40;;;4.10;;
17153;SDS011;8692;52.164;7.558;2023-08-06T02:56:20;4.30;;;3.90;;
17153;SDS011;8692;52.164;7.558;2023-08-06T02:58:56;6.30;;;4.97;;
17153;SDS011;8692;52.164;7.558;2023-08-06T03:01:38;4.73;;;4.20;;
17153;SDS011;8692;52.164;7.558;2023-08-06T03:04:14;4.60;;;4.20;;
17153;SDS011;8692;52.164;7.558;2023-08-06T03:06:46;5.93;;;5.17;;
17153;SDS011;8692;52.164;7.558;2023-08-06T03:09:17;6.30;;;4.67;;
17153;SDS011;8692;52.164;7.558;2023-08-06T03:11:47;4.57;;;4.17;;
17153;SDS011;8692;52.164;7.558;2023-08-06T03:14:15;6.93;;;5.40;;
17153;SDS011;8692;52.164;7.558;2023-08-06T03:16:45;5.37;;;4.93;;
17153;SDS011;8692;52.164;7.558;2023-08-06T03:19:16;5.20;;;4.80;;
17153;SDS011;8692;52.164;7.558;2023-08-06T03:21:44;4.27;;;3.97;;
17153;SDS011;8692;52.164;7.558;2023-08-06T03:24:13;7.80;;;4.70;;
17153;SDS011;8692;52.164;7.558;2023-08-06T03:26:44;4.70;;;4.40;;
17153;SDS011;8692;52.164;7.558;2023-08-06T03:29:13;4.90;;;4.40;;
17153;SDS011;8692;52.164;7.558;2023-08-06T03:31:42;4.93;;;4.50;;
17153;SDS011;8692;52.164;7.558;2023-08-06T03:34:14;4.53;;;4.13;;
17153;SDS011;8692;52.164;7.558;2023-08-06T03:36:42;4.10;;;3.80;;
17153;SDS011;8692;52.164;7.558;2023-08-06T03:39:10;3.50;;;3.20;;
17153;SDS011;8692;52.164;7.558;2023-08-06T03:41:40;4.27;;;3.97;;
17153;SDS011;8692;52.164;7.558;2023-08-06T03:44:08;5.17;;;4.20;;
17153;SDS011;8692;52.164;7.558;2023-08-06T03:46:36;5.33;;;4.93;;
17153;SDS011;8692;52.164;7.558;2023-08-06T03:49:06;3.83;;;3.53;;
17153;SDS011;8692;52.164;7.558;2023-08-06T03:51:36;4.13;;;3.83;;
17153;SDS011;8692;52.164;7.558;2023-08-06T03:54:04;4.60;;;4.20;;
17153;SDS011;8692;52.164;7.558;2023-08-06T03:56:32;4.03;;;3.73;;
17153;SDS011;8692;52.164;7.558;2023-08-06T03:59:00;3.87;;;3.57;;
17153;SDS011;8692;52.164;7.558;2023-08-06T04:01:29;4.60;;;4.23;;
17153;SDS011;8692;52.164;7.558;2023-08-06T04:03:57;3.83;;;3.47;;
17153;SDS011;8692;52.164;7.558;2023-08-06T04:06:25;4.23;;;3.93;;
17153;SDS011;8692;52.164;7.558;2023-08-06T04:08:54;4.87;;;3.77;;
17153;SDS011;8692;52.164;7.558;2023-08-06T04:11:23;4.97;;;4.57;;
17153;SDS011;8692;52.164;7.558;2023-08-06T04:13:50;4.50;;;4.10;;
17153;SDS011;8692;52.164;7.558;2023-08-06T04:16:20;4.10;;;3.70;;
17153;SDS011;8692;52.164;7.558;2023-08-06T04:18:48;4.20;;;3.90;;
17153;SDS011;8692;52.164;7.558;2023-08-06T04:21:16;4.77;;;4.37;;
17153;SDS011;8692;52.164;7.558;2023-08-06T04:23:45;4.53;;;3.70;;
17153;SDS011;8692;52.164;7.558;2023-08-06T04:26:15;4.07;;;3.53;;
17153;SDS011;8692;52.164;7.558;2023-08-06T04:28:43;4.53;;;3.47;;
17153;SDS011;8692;52.164;7.558;2023-08-06T04:31:11;3.90;;;3.60;;
17153;SDS011;8692;52.164;7.558;2023-08-06T04:33:41;4.63;;;3.93;;
17153;SDS011;8692;52.164;7.558;2023-08-06T04:36:12;4.97;;;4.37;;
17153;SDS011;8692;52.164;7.558;2023-08-06T04:38:40;4.80;;;4.37;;
17153;SDS011;8692;52.164;7.558;2023-08-06T04:41:14;4.73;;;4.20;;
17153;SDS011;8692;52.164;7.558;2023-08-06T04:43:42;3.90;;;3.60;;
17153;SDS011;8692;52.164;7.558;2023-08-06T04:46:11;4.07;;;3.77;;
17153;SDS011;8692;52.164;7.558;2023-08-06T04:48:39;3.90;;;3.60;;
17153;SDS011;8692;52.164;7.558;2023-08-06T04:51:07;3.70;;;3.40;;
17153;SDS011;8692;52.164;7.558;2023-08-06T04:53:35;4.00;;;3.50;;
17153;SDS011;8692;52.164;7.558;2023-08-06T04:56:04;4.20;;;3.80;;
17153;SDS011;8692;52.164;7.558;2023-08-06T04:58:33;4.37;;;3.97;;
17153;SDS011;8692;52.164;7.558;2023-08-06T05:01:04;4.67;;;4.20;;
17153;SDS011;8692;52.164;7.558;2023-08-06T05:03:32;4.90;;;3.93;;
17153;SDS011;8692;52.164;7.558;2023-08-06T05:06:00;4.60;;;4.10;;
17153;SDS011;8692;52.164;7.558;2023-08-06T05:08:27;4.87;;;4.47;;
17153;SDS011;8692;52.164;7.558;2023-08-06T05:10:55;3.93;;;3.63;;
17153;SDS011;8692;52.164;7.558;2023-08-06T05:13:23;4.13;;;3.83;;
17153;SDS011;8692;52.164;7.558;2023-08-06T05:15:54;4.80;;;4.40;;
17153;SDS011;8692;52.164;7.558;2023-08-06T05:18:22;5.93;;;4.87;;
17153;SDS011;8692;52.164;7.558;2023-08-06T05:20:50;4.97;;;4.60;;
17153;SDS011;8692;52.164;7.558;2023-08-06T05:23:18;4.63;;;4.30;;
17153;SDS011;8692;52.164;7.558;2023-08-06T05:25:46;5.83;;;5.33;;
17153;SDS011;8692;52.164;7.558;2023-08-06T05:28:14;6.10;;;4.30;;
17153;SDS011;8692;52.164;7.558;2023-08-06T05:30:42;4.63;;;4.23;;
17153;SDS011;8692;52.164;7.558;2023-08-06T05:33:11;5.00;;;4.60;;
17153;SDS011;8692;52.164;7.558;2023-08-06T05:35:40;5.70;;;4.43;;
17153;SDS011;8692;52.164;7.558;2023-08-06T05:38:08;4.90;;;4.30;;
17153;SDS011;8692;52.164;7.558;2023-08-06T05:40:36;5.33;;;4.53;;
17153;SDS011;8692;52.164;7.558;2023-08-06T05:43:04;4.83;;;4.40;;
17153;SDS011;8692;52.164;7.558;2023-08-06T05:45:32;4.33;;;4.00;;
17153;SDS011;8692;52.164;7.558;2023-08-06T05:48:00;4.83;;;4.43;;
17153;SDS011;8692;52.164;7.558;2023-08-06T05:50:29;4.40;;;4.00;;
17153;SDS011;8692;52.164;7.558;2023-08-06T05:52:57;5.33;;;4.90;;
17153;SDS011;8692;52.164;7.558;2023-08-06T05:55:27;4.13;;;3.80;;
17153;SDS011;8692;52.164;7.558;2023-08-06T05:57:55;4.67;;;4.27;;
17153;SDS011;8692;52.164;7.558;2023-08-06T06:00:23;4.47;;;4.17;;
17153;SDS011;8692;52.164;7.558;2023-08-06T06:02:51;6.50;;;4.30;;
17153;SDS011;8692;52.164;7.558;2023-08-06T06:05:19;4.77;;;4.00;;
17153;SDS011;8692;52.164;7.558;2023-08-06T06:07:49;4.33;;;3.90;;
17153;SDS011;8692;52.164;7.558;2023-08-06T06:10:17;4.33;;;4.00;;
17153;SDS011;8692;52.164;7.558;2023-08-06T06:12:45;4.20;;;3.90;;
17153;SDS011;8692;52.164;7.558;2023-08-06T06:15:12;5.60;;;4.03;;
17153;SDS011;8692;52.164;7.558;2023-08-06T06:17:40;4.77;;;4.27;;
17153;SDS011;8692;52.164;7.558;2023-08-06T06:20:09;4.17;;;3.73;;
17153;SDS011;8692;52.164;7.558;2023-08-06T06:22:37;4.60;;;4.10;;
17153;SDS011;8692;52.164;7.558;2023-08-06T06:25:07;4.93;;;4.03;;
17153;SDS011;8692;52.164;7.558;2023-08-06T06:27:36;4.27;;;3.97;;
17153;SDS011;8692;52.164;7.558;2023-08-06T06:30:04;4.20;;;3.83;;
17153;SDS011;8692;52.164;7.558;2023-08-06T06:32:33;4.30;;;3.60;;
17153;SDS011;8692;52.164;7.558;2023-08-06T06:35:01;4.07;;;3.67;;
17153;SDS011;8692;52.164;7.558;2023-08-06T06:37:30;5.07;;;4.60;;
17153;SDS011;8692;52.164;7.558;2023-08-06T06:39:58;5.60;;;4.20;;
17153;SDS011;8692;52.164;7.558;2023-08-06T06:42:27;5.00;;;4.50;;
17153;SDS011;8692;52.164;7.558;2023-08-06T06:44:59;5.20;;;3.93;;
17153;SDS011;8692;52.164;7.558;2023-08-06T06:47:27;4.00;;;3.60;;
17153;SDS011;8692;52.164;7.558;2023-08-06T06:49:55;4.13;;;3.67;;
17153;SDS011;8692;52.164;7.558;2023-08-06T06:52:23;6.60;;;4.30;;
17153;SDS011;8692;52.164;7.558;2023-08-06T06:54:51;4.67;;;3.97;;
17153;SDS011;8692;52.164;7.558;2023-08-06T06:57:19;4.07;;;3.53;;
17153;SDS011;8692;52.164;7.558;2023-08-06T06:59:48;3.70;;;3.40;;
17153;SDS011;8692;52.164;7.558;2023-08-06T07:02:16;3.27;;;3.00;;
17153;SDS011;8692;52.164;7.558;2023-08-06T07:04:44;6.40;;;3.80;;
17153;SDS011;8692;52.164;7.558;2023-08-06T07:07:12;5.97;;;3.10;;
17153;SDS011;8692;52.164;7.558;2023-08-06T07:09:40;4.37;;;3.97;;
17153;SDS011;8692;52.164;7.558;2023-08-06T07:12:08;3.70;;;3.40;;
17153;SDS011;8692;52.164;7.558;2023-08-06T07:14:36;4.73;;;3.90;;
17153;SDS011;8692;52.164;7.558;2023-08-06T07:17:06;3.87;;;3.40;;
17153;SDS011;8692;52.164;7.558;2023-08-06T07:19:34;4.17;;;3.77;;
17153;SDS011;8692;52.164;7.558;2023-08-06T07:22:02;3.83;;;3.47;;
17153;SDS011;8692;52.164;7.558;2023-08-06T07:24:30;4.27;;;3.27;;
17153;SDS011;8692;52.164;7.558;2023-08-06T07:26:58;3.27;;;2.97;;
17153;SDS011;8692;52.164;7.558;2023-08-06T07:29:27;3.60;;;3.30;;
17153;SDS011;8692;52.164;7.558;2023-08-06T07:31:55;3.23;;;2.93;;
17153;SDS011;8692;52.164;7.558;2023-08-06T07:34:24;5.37;;;3.33;;
17153;SDS011;8692;52.164;7.558;2023-08-06T07:36:52;4.17;;;3.20;;
17153;SDS011;8692;52.164;7.558;2023-08-06T07:39:20;4.33;;;2.87;;
17153;SDS011;8692;52.164;7.558;2023-08-06T07:41:50;4.07;;;3.50;;
17153;SDS011;8692;52.164;7.558;2023-08-06T07:44:18;3.70;;;3.40;;
17153;SDS011;8692;52.164;7.558;2023-08-06T07:46:46;3.20;;;3.00;;
17153;SDS011;8692;52.164;7.558;2023-08-06T07:49:14;4.20;;;2.80;;
17153;SDS011;8692;52.164;7.558;2023-08-06T07:51:43;3.27;;;2.90;;
17153;SDS011;8692;52.164;7.558;2023-08-06T07:54:11;5.67;;;3.87;;
17153;SDS011;8692;52.164;7.558;2023-08-06T07:56:39;4.00;;;3.23;;
17153;SDS011;8692;52.164;7.558;2023-08-06T07:59:07;3.97;;;3.13;;
17153;SDS011;8692;52.164;7.558;2023-08-06T08:01:35;3.37;;;3.00;;
17153;SDS011;8692;52.164;7.558;2023-08-06T08:04:03;4.47;;;4.00;;
17153;SDS011;8692;52.164;7.558;2023-08-06T08:06:32;5.43;;;3.77;;
17153;SDS011;8692;52.164;7.558;2023-08-06T08:09:02;3.47;;;3.17;;
17153;SDS011;8692;52.164;7.558;2023-08-06T08:11:30;3.43;;;3.13;;
17153;SDS011;8692;52.164;7.558;2023-08-06T08:13:58;3.27;;;2.97;;
17153;SDS011;8692;52.164;7.558;2023-08-06T08:16:26;3.43;;;3.13;;
17153;SDS011;8692;52.164;7.558;2023-08-06T08:18:54;6.47;;;3.43;;
17153;SDS011;8692;52.164;7.558;2023-08-06T08:21:22;3.67;;;3.20;;
17153;SDS011;8692;52.164;7.558;2023-08-06T08:23:51;3.43;;;3.00;;
17153;SDS011;8692;52.164;7.558;2023-08-06T08:26:21;3.77;;;3.47;;
17153;SDS011;8692;52.164;7.558;2023-08-06T08:28:49;3.57;;;3.03;;
17153;SDS011;8692;52.164;7.558;2023-08-06T08:31:17;2.90;;;2.50;;
17153;SDS011;8692;52.164;7.558;2023-08-06T08:33:45;3.77;;;3.10;;
17153;SDS011;8692;52.164;7.558;2023-08-06T08:36:13;3.97;;;2.80;;
17153;SDS011;8692;52.164;7.558;2023-08-06T08:38:42;3.27;;;2.47;;
17153;SDS011;8692;52.164;7.558;2023-08-06T08:41:10;3.87;;;2.30;;
17153;SDS011;8692;52.164;7.558;2023-08-06T08:43:39;2.40;;;1.60;;
17153;SDS011;8692;52.164;7.558;2023-08-06T08:46:09;2.00;;;1.50;;
17153;SDS011;8692;52.164;7.558;2023-08-06T08:48:40;2.93;;;1.67;;
17153;SDS011;8692;52.164;7.558;2023-08-06T08:51:08;2.43;;;2.23;;
17153;SDS011;8692;52.164;7.558;2023-08-06T08:53:36;3.40;;;2.10;;
17153;SDS011;8692;52.164;7.558;2023-08-06T08:56:05;2.70;;;1.53;;
17153;SDS011;8692;52.164;7.558;2023-08-06T08:58:33;1.77;;;1.67;;
17153;SDS011;8692;52.164;7.558;2023-08-06T09:01:03;1.90;;;1.53;;
17153;SDS011;8692;52.164;7.558;2023-08-06T09:03:31;2.13;;;1.60;;
17153;SDS011;8692;52.164;7.558;2023-08-06T09:06:00;1.83;;;1.73;;
17153;SDS011;8692;52.164;7.558;2023-08-06T09:08:30;1.77;;;1.60;;
17153;SDS011;8692;52.164;7.558;2023-08-06T09:11:04;1.70;;;1.50;;
17153;SDS011;8692;52.164;7.558;2023-08-06T09:13:35;2.77;;;2.00;;
17153;SDS011;8692;52.164;7.558;2023-08-06T09:16:06;2.03;;;1.73;;
17153;SDS011;8692;52.164;7.558;2023-08-06T09:18:34;2.87;;;2.03;;
17153;SDS011;8692;52.164;7.558;2023-08-06T09:21:06;1.90;;;1.70;;
17153;SDS011;8692;52.164;7.558;2023-08-06T09:23:42;2.28;;;2.03;;
17153;SDS011;8692;52.164;7.558;2023-08-06T09:26:11;2.33;;;2.00;;
17153;SDS011;8692;52.164;7.558;2023-08-06T09:28:42;2.20;;;1.60;;
17153;SDS011;8692;52.164;7.558;2023-08-06T09:31:11;2.00;;;1.90;;
17153;SDS011;8692;52.164;7.558;2023-08-06T09:33:39;3.27;;;1.47;;
17153;SDS011;8692;52.164;7.558;2023-08-06T09:36:08;1.77;;;1.67;;
17153;SDS011;8692;52.164;7.558;2023-08-06T09:38:40;2.07;;;1.97;;
17153;SDS011;8692;52.164;7.558;2023-08-06T09:41:08;2.20;;;2.00;;
17153;SDS011;8692;52.164;7.558;2023-08-06T09:43:39;2.37;;;2.00;;
17153;SDS011;8692;52.164;7.558;2023-08-06T09:46:13;4.07;;;2.60;;
17153;SDS011;8692;52.164;7.558;2023-08-06T09:48:46;3.60;;;2.43;;
17153;SDS011;8692;52.164;7.558;2023-08-06T09:51:15;2.53;;;2.13;;
17153;SDS011;8692;52.164;7.558;2023-08-06T09:53:44;3.30;;;2.67;;
17153;SDS011;8692;52.164;7.558;2023-08-06T09:56:14;3.50;;;2.07;;
17153;SDS011;8692;52.164;7.558;2023-08-06T09:58:44;2.93;;;2.50;;
17153;SDS011;8692;52.164;7.558;2023-08-06T10:01:17;5.30;;;2.40;;
17153;SDS011;8692;52.164;7.558;2023-08-06T10:03:46;3.00;;;2.70;;
17153;SDS011;8692;52.164;7.558;2023-08-06T10:06:16;3.23;;;2.67;;
17153;SDS011;8692;52.164;7.558;2023-08-06T10:08:45;2.60;;;2.40;;
17153;SDS011;8692;52.164;7.558;2023-08-06T10:11:14;11.43;;;3.00;;
17153;SDS011;8692;52.164;7.558;2023-08-06T10:13:43;3.00;;;2.57;;
17153;SDS011;8692;52.164;7.558;2023-08-06T10:16:12;5.00;;;2.93;;
17153;SDS011;8692;52.164;7.558;2023-08-06T10:18:42;3.40;;;2.97;;
17153;SDS011;8692;52.164;7.558;2023-08-06T10:21:11;2.80;;;2.60;;
17153;SDS011;8692;52.164;7.558;2023-08-06T10:23:40;4.80;;;2.40;;
17153;SDS011;8692;52.164;7.558;2023-08-06T10:26:08;5.70;;;2.40;;
17153;SDS011;8692;52.164;7.558;2023-08-06T10:28:37;4.93;;;2.77;;
17153;SDS011;8692;52.164;7.558;2023-08-06T10:31:05;4.43;;;2.73;;
17153;SDS011;8692;52.164;7.558;2023-08-06T10:33:40;3.00;;;2.67;;
17153;SDS011;8692;52.164;7.558;2023-08-06T10:36:11;5.00;;;2.53;;
17153;SDS011;8692;52.164;7.558;2023-08-06T10:38:46;4.47;;;2.23;;
17153;SDS011;8692;52.164;7.558;2023-08-06T10:41:16;3.30;;;2.50;;
17153;SDS011;8692;52.164;7.558;2023-08-06T10:43:50;2.90;;;2.40;;
17153;SDS011;8692;52.164;7.558;2023-08-06T10:46:21;2.70;;;2.23;;
17153;SDS011;8692;52.164;7.558;2023-08-06T10:48:52;1.97;;;1.83;;
17153;SDS011;8692;52.164;7.558;2023-08-06T10:51:20;3.77;;;2.40;;
17153;SDS011;8692;52.164;7.558;2023-08-06T10:53:48;2.83;;;2.50;;
17153;SDS011;8692;52.164;7.558;2023-08-06T10:56:17;2.40;;;2.00;;
17153;SDS011;8692;52.164;7.558;2023-08-06T10:58:48;3.13;;;2.17;;
17153;SDS011;8692;52.164;7.558;2023-08-06T11:01:17;2.53;;;2.00;;
17153;SDS011;8692;52.164;7.558;2023-08-06T11:03:46;2.37;;;2.13;;
17153;SDS011;8692;52.164;7.558;2023-08-06T11:06:18;2.00;;;1.90;;
17153;SDS011;8692;52.164;7.558;2023-08-06T11:08:47;2.93;;;2.20;;
17153;SDS011;8692;52.164;7.558;2023-08-06T11:11:16;2.83;;;2.37;;
17153;SDS011;8692;52.164;7.558;2023-08-06T11:13:46;2.30;;;2.10;;
17153;SDS011;8692;52.164;7.558;2023-08-06T11:16:15;3.37;;;2.07;;
17153;SDS011;8692;52.164;7.558;2023-08-06T11:18:45;2.57;;;2.23;;
17153;SDS011;8692;52.164;7.558;2023-08-06T11:21:14;3.07;;;2.10;;
17153;SDS011;8692;52.164;7.558;2023-08-06T11:23:46;2.87;;;2.33;;
17153;SDS011;8692;52.164;7.558;2023-08-06T11:26:18;2.70;;;2.03;;
17153;SDS011;8692;52.164;7.558;2023-08-06T11:28:46;3.57;;;2.80;;
17153;SDS011;8692;52.164;7.558;2023-08-06T11:31:21;3.60;;;2.30;;
17153;SDS011;8692;52.164;7.558;2023-08-06T11:33:49;2.97;;;2.27;;
17153;SDS011;8692;52.164;7.558;2023-08-06T11:36:28;3.70;;;2.47;;
17153;SDS011;8692;52.164;7.558;2023-08-06T11:38:58;2.53;;;2.33;;
17153;SDS011;8692;52.164;7.558;2023-08-06T11:41:27;3.70;;;2.60;;
17153;SDS011;8692;52.164;7.558;2023-08-06T11:43:55;4.72;;;2.78;;
17153;SDS011;8692;52.164;7.558;2023-08-06T11:46:23;2.60;;;2.40;;
17153;SDS011;8692;52.164;7.558;2023-08-06T11:48:52;2.43;;;2.23;;
17153;SDS011;8692;52.164;7.558;2023-08-06T11:51:22;3.47;;;2.60;;
17153;SDS011;8692;52.164;7.558;2023-08-06T11:53:51;2.60;;;2.40;;
17153;SDS011;8692;52.164;7.558;2023-08-06T11:56:22;5.77;;;2.60;;
17153;SDS011;8692;52.164;7.558;2023-08-06T11:58:52;2.50;;;2.30;;
17153;SDS011;8692;52.164;7.558;2023-08-06T12:01:22;4.90;;;2.50;;
17153;SDS011;8692;52.164;7.558;2023-08-06T12:03:51;2.50;;;2.30;;
17153;SDS011;8692;52.164;7.558;2023-08-06T12:06:19;3.30;;;2.40;;
17153;SDS011;8692;52.164;7.558;2023-08-06T12:08:47;4.43;;;2.30;;
17153;SDS011;8692;52.164;7.558;2023-08-06T12:11:17;2.73;;;2.10;;
17153;SDS011;8692;52.164;7.558;2023-08-06T12:13:46;3.13;;;2.23;;
17153;SDS011;8692;52.164;7.558;2023-08-06T12:16:18;6.80;;;2.90;;
17153;SDS011;8692;52.164;7.558;2023-08-06T12:18:48;4.53;;;2.10;;
17153;SDS011;8692;52.164;7.558;2023-08-06T12:21:16;2.30;;;2.10;;
17153;SDS011;8692;52.164;7.558;2023-08-06T12:23:44;2.10;;;1.97;;
17153;SDS011;8692;52.164;7.558;2023-08-06T12:26:12;5.67;;;2.17;;
17153;SDS011;8692;52.164;7.558;2023-08-06T12:28:40;3.07;;;2.17;;
17153;SDS011;8692;52.164;7.558;2023-08-06T12:31:09;2.87;;;2.23;;
17153;SDS011;8692;52.164;7.558;2023-08-06T12:33:37;2.63;;;2.13;;
17153;SDS011;8692;52.164;7.558;2023-08-06T12:36:05;2.90;;;2.00;;
17153;SDS011;8692;52.164;7.558;2023-08-06T12:38:33;2.03;;;1.93;;
17153;SDS011;8692;52.164;7.558;2023-08-06T12:41:01;1.87;;;1.77;;
17153;SDS011;8692;52.164;7.558;2023-08-06T12:43:29;1.90;;;1.63;;
17153;SDS011;8692;52.164;7.558;2023-08-06T12:45:57;1.73;;;1.60;;
17153;SDS011;8692;52.164;7.558;2023-08-06T12:48:27;5.50;;;1.90;;
17153;SDS011;8692;52.164;7.558;2023-08-06T12:50:54;3.27;;;1.50;;
17153;SDS011;8692;52.164;7.558;2023-08-06T12:53:22;2.27;;;1.60;;
17153;SDS011;8692;52.164;7.558;2023-08-06T12:55:50;2.50;;;1.57;;
17153;SDS011;8692;52.164;7.558;2023-08-06T12:58:18;2.00;;;1.43;;
17153;SDS011;8692;52.164;7.558;2023-08-06T13:00:46;1.73;;;1.63;;
17153;SDS011;8692;52.164;7.558;2023-08-06T13:03:14;2.33;;;1.80;;
17153;SDS011;8692;52.164;7.558;2023-08-06T13:05:44;1.50;;;1.40;;
17153;SDS011;8692;52.164;7.558;2023-08-06T13:08:12;1.90;;;1.70;;
17153;SDS011;8692;52.164;7.558;2023-08-06T13:10:40;3.13;;;2.27;;
17153;SDS011;8692;52.164;7.558;2023-08-06T13:13:08;2.40;;;1.60;;
17153;SDS011;8692;52.164;7.558;2023-08-06T13:15:37;2.40;;;1.88;;
17153;SDS011;8692;52.164;7.558;2023-08-06T13:18:05;3.60;;;1.80;;
17153;SDS011;8692;52.164;7.558;2023-08-06T13:20:33;1.77;;;1.60;;
17153;SDS011;8692;52.164;7.558;2023-08-06T13:23:02;4.00;;;1.90;;
17153;SDS011;8692;52.164;7.558;2023-08-06T13:25:30;2.00;;;1.75;;
17153;SDS011;8692;52.164;7.558;2023-08-06T13:28:03;3.75;;;2.20;;
17153;SDS011;8692;52.164;7.558;2023-08-06T13:30:31;2.45;;;1.65;;
17153;SDS011;8692;52.164;7.558;2023-08-06T13:33:00;2.35;;;1.95;;
17153;SDS011;8692;52.164;7.558;2023-08-06T13:35:30;2.10;;;1.87;;
17153;SDS011;8692;52.164;7.558;2023-08-06T13:37:58;4.70;;;2.00;;
17153;SDS011;8692;52.164;7.558;2023-08-06T13:40:31;3.53;;;1.60;;
17153;SDS011;8692;52.164;7.558;2023-08-06T13:43:00;1.50;;;1.40;;
17153;SDS011;8692;52.164;7.558;2023-08-06T13:45:28;1.30;;;1.20;;
17153;SDS011;8692;52.164;7.558;2023-08-06T13:47:57;1.40;;;1.23;;
17153;SDS011;8692;52.164;7.558;2023-08-06T13:50:25;3.30;;;1.37;;
17153;SDS011;8692;52.164;7.558;2023-08-06T13:52:54;1.40;;;1.30;;
17153;SDS011;8692;52.164;7.558;2023-08-06T13:55:22;3.60;;;1.50;;
17153;SDS011;8692;52.164;7.558;2023-08-06T13:57:51;1.73;;;1.33;;
17153;SDS011;8692;52.164;7.558;2023-08-06T14:00:19;1.70;;;1.50;;
17153;SDS011;8692;52.164;7.558;2023-08-06T14:02:47;2.47;;;2.13;;
17153;SDS011;8692;52.164;7.558;2023-08-06T14:05:16;4.67;;;2.57;;
17153;SDS011;8692;52.164;7.558;2023-08-06T14:07:44;4.27;;;2.50;;
17153;SDS011;8692;52.164;7.558;2023-08-06T14:10:12;6.00;;;2.40;;
17153;SDS011;8692;52.164;7.558;2023-08-06T14:12:40;4.87;;;2.47;;
17153;SDS011;8692;52.164;7.558;2023-08-06T14:15:10;2.27;;;1.90;;
17153;SDS011;8692;52.164;7.558;2023-08-06T14:17:38;4.90;;;1.80;;
17153;SDS011;8692;52.164;7.558;2023-08-06T14:20:06;4.07;;;1.30;;
17153;SDS011;8692;52.164;7.558;2023-08-06T14:22:38;1.53;;;1.43;;
17153;SDS011;8692;52.164;7.558;2023-08-06T14:25:06;1.67;;;1.30;;
17153;SDS011;8692;52.164;7.558;2023-08-06T14:27:34;1.80;;;1.30;;
17153;SDS011;8692;52.164;7.558;2023-08-06T14:30:02;1.73;;;1.33;;
17153;SDS011;8692;52.164;7.558;2023-08-06T14:32:32;3.47;;;1.23;;
17153;SDS011;8692;52.164;7.558;2023-08-06T14:35:02;1.83;;;1.47;;
17153;SDS011;8692;52.164;7.558;2023-08-06T14:37:30;1.33;;;1.20;;
17153;SDS011;8692;52.164;7.558;2023-08-06T14:39:58;1.33;;;1.00;;
17153;SDS011;8692;52.164;7.558;2023-08-06T14:42:26;3.90;;;1.33;;
17153;SDS011;8692;52.164;7.558;2023-08-06T14:44:54;1.50;;;1.40;;
17153;SDS011;8692;52.164;7.558;2023-08-06T14:47:22;1.10;;;0.93;;
17153;SDS011;8692;52.164;7.558;2023-08-06T14:49:52;1.30;;;1.20;;
17153;SDS011;8692;52.164;7.558;2023-08-06T14:52:19;6.20;;;1.20;;
17153;SDS011;8692;52.164;7.558;2023-08-06T14:54:47;0.90;;;0.90;;
17153;SDS011;8692;52.164;7.558;2023-08-06T14:57:18;1.60;;;1.30;;
17153;SDS011;8692;52.164;7.558;2023-08-06T14:59:47;1.30;;;1.20;;
17153;SDS011;8692;52.164;7.558;2023-08-06T15:02:15;2.13;;;1.50;;
17153;SDS011;8692;52.164;7.558;2023-08-06T15:04:44;1.77;;;1.37;;
17153;SDS011;8692;52.164;7.558;2023-08-06T15:07:13;1.90;;;1.80;;
17153;SDS011;8692;52.164;7.558;2023-08-06T15:09:41;1.80;;;1.57;;
17153;SDS011;8692;52.164;7.558;2023-08-06T15:12:29;2.10;;;2.00;;